Buford, OH (45110)

1:49 AM EDT on March 28, 2015 (GMT -0400)
Hillsboro | | Change Station
CLOSE
Current Station
Personal Weather Station
Location: Hillsboro, OH
Elevation: 1102 ft
Nearby Weather Stations

Elev 1102 ft 39.21 °N, 83.60 °W | Updated 7 seconds ago

Overcast
Overcast
23.4 °F
Feels Like 16 °F
N
5.8
Wind Variable Wind from NE
Gusts 5.8 mph

Today
High -- | Low -- °F
--% Chance of Precip.
Yesterday
High -- | Low -- °F
Precip. -- in
7:25 AM 7:54 PM
First Quarter, 59% visible
Pressure 30.18 in
Visibility 10.0 miles
Clouds Mostly Cloudy 6000 ft
Windchill 16 °F
Dew Point 10 °F
Humidity 55%
Rainfall 0.00 in
Snow Depth Not available.
UV 0 out of 12
Pollen 7.80 out of 12
Air Quality Not available.
Flu Activity Not available.
METAR KILN 280454Z AUTO 03006KT 10SM BKN060 M06/M09 A3008 RMK AO2 SLP218 T10561094 400281056 $

More Conditions Fewer Conditions

Pressure 30.18 in
Visibility 10.0 miles
Clouds Mostly Cloudy 6000 ft
Windchill 16 °F
Dew Point 10 °F
Humidity 55%
Rainfall 0.00 in
Snow Depth Not available.
UV 0 out of 12
Pollen 7.80 out of 12
Air Quality Not available.
Flu Activity Not available.
METAR KILN 280454Z AUTO 03006KT 10SM BKN060 M06/M09 A3008 RMK AO2 SLP218 T10561094 400281056 $

More Conditions Fewer Conditions

10-Day Weather Forecast

Almanac

Astronomy

Mar. 28, 2015 Rise Set
Actual Time
Civil Twilight
Nautical Twilight
Astronomical Twilight
Moon
Length of Visible Light
Length of Day
Tomorrow will be .
, % of the Moon is Illuminated

Today's Extremes

State Highs State Lows

Community

WunderPhotos

Upload Photos

1,808,934 photos uploaded!

WunderBlogs® & News

Nearby

Air Quality

  Air Quality AQ Index Pollutant
Not available.

Snow Depth

Station Depth Elevation

Earthquake Activity

City Distance Mag. Time & Date
Minimum magnitude displayed is 2.5.

Coastal Water Temperatures

Place Temperature

Stations

Nearby Weather Stations

Station Location Temp. Windchill Dew Point Humidity Wind Precip. Elev Updated Type